EGCCLGKR

Guest
Details From EGCC - Manchester
To LGKR - Ioannis Kapodistrias Intl
Flight Number -
Tags Generated
Created
Modified
Stats Distance 1,225 nm / 2,269 km
Max Altitude 0 ft / 0 m
Waypoints 6
Social Downloads 13
Likes 0
Share VATSIM

Download

Looking for another format? Having issues loading an existing format? Contact us
Advertisement - Login to hide

Notes

Generated

Route

EGCC NOVEM MOPAN TULIK GAR02 LGKR

ID Type Via Altitude Latitude Longitude Leg Dist Tot Dist Heading (true) Name
O EGCC APT - 0 ft / 0 m 53.33197˚ -2.31066˚ - 0 nm - -
NOVEM FIX - 0 ft / 0 m 50.85667˚ 3.23667˚ 252 nm 252 nm 124° / 128° -
MOPAN FIX - 0 ft / 0 m 48.24639˚ 8.15444˚ 247 nm 500 nm 127° / 131° -
TULIK FIX - 0 ft / 0 m 45.28389˚ 12.78917˚ 260 nm 761 nm 131° / 135° -
GAR02 FIX - 0 ft / 0 m 39.63925˚ 19.90187˚ 462 nm 1223 nm 135° / 139° -
O LGKR APT - 0 ft / 0 m 39.61228˚ 19.90921˚ 1 nm 1225 nm 168° / 168° -

Altitude Profile

Advertisement - Login to hide

Weather


0- 5 10 15 20 25 30 35+ Temperature / ° C

Clouds and Precipitation
Forecast for 2018-05-21 06:00 UTC. Updated 30 minutes ago

Ground ~20,000 ft ~40,000 ft Winds

EGCC

Details ICAO EGCC (MAN)
Name Manchester Intl
Region United Kingdom
Timezone Europe/London (UTC+1.0)
Stats Elevation 257 ft / 78 m (AMSL)
Location 53.347141° -2.283954°
Runways 2
Magnetic Variation 1.394° W

METAR

EGCC 210320Z AUTO 10003KT 9999 NCD 13/08 Q1018 NOSIG

Decode

TAF

TAF EGCC 202254Z 2100/2206 VRB04KT 9999 FEW045 PROB30 2101/2108 8000 PROB30 TEMPO 2112/2120 8000 SHRA PROB30 2202/2206 6000

Decode

Departure Runways

ID Width Length Bearing (true) Bearing (mag) Surface Threshold Offset Overrun Length
05L 151 ft / 46 m 9,981 ft / 3,042 m 50.99° 52.38° Asphalt 1,401 ft / 427 m 0 ft / 0 m
05R 151 ft / 46 m 9,952 ft / 3,033 m 50.97° 52.36° Asphalt 0 ft / 0 m 26 ft / 8 m
23L 151 ft / 46 m 9,952 ft / 3,033 m 231.00° 232.39° Asphalt 561 ft / 171 m 0 ft / 0 m
23R 151 ft / 46 m 9,981 ft / 3,042 m 231.02° 232.41° Asphalt 597 ft / 182 m 0 ft / 0 m

LGKR

Details ICAO LGKR (CFU)
Name IOANNIS KAPODISTRIAS INTL
Region Greece
Timezone Europe/Athens (UTC+3.0)
Stats Elevation 6 ft / 2 m (AMSL)
Location 39.601779° 19.911908°
Runways 1
Magnetic Variation 4.141° E

METAR

LGKR 210320Z 30002KT CAVOK 19/18 Q1011 NOSIG

Decode

TAF

TAF LGKR 202300Z 2100/2124 36010KT 9999 FEW018 TEMPO 2110/2115 27010KT

Decode

Destination Runways

ID Width Length Bearing (true) Bearing (mag) Surface Threshold Offset Overrun Length
17 148 ft / 45 m 7,815 ft / 2,382 m 168.81° 164.67° Asphalt 1,348 ft / 411 m 0 ft / 0 m
35 148 ft / 45 m 7,815 ft / 2,382 m 348.81° 344.67° Asphalt 213 ft / 65 m 0 ft / 0 m

Popular Alternatives